Houston, Texas
Traffic Map
Current Weather Conditions
Houston, Texas
Scattered Clouds
Scattered Clouds
31°
Feels Like: 36°
Wind Chill: 31° Ceiling: Unl
Heat Index: 36° Visibility: 10mi
Dew Point: 24° Wind: 17mph
Humidity: 67% Direction: 150° (SSE)
Pressure: 30.09in Gusts: 21mph
Raw Report DataKIAH 061553Z 15015G18KT 10SM SCT028 SCT250 31/24 A3009 RMK AO2 SLP189 T03060239
Traffic Incident Summary
Active as of:
Severity:
Category:
InformationThere was an issue retrieving the traffic information for this location. Please try a different location or try again shortly.
Advertisements
Track Severe Weather on mobile